Wright City, OK (74766)

8:19 PM CDT on August 30, 2015 (GMT -0500)
Idabel | | Change Station
CLOSE
Current Station
Airport
Location: Idabel,
Elevation: 472 ft
Nearby Weather Stations

Elev 472 ft 33.91 °N, 94.85 °W | Updated 4 minutes ago

Overcast
Overcast
82 °F
Feels Like 83 °F
N
9
Wind Variable Wind from SSE

Today
High -- | Low -- °F
--% Chance of Precip.
Yesterday
High -- | Low -- °F
Precip. -- in
6:51 AM 7:48 PM
Full, 98% visible
Pressure 29.93 in
Visibility 10.0 miles
Clouds Clear
Heat Index 83 °F
Dew Point 63 °F
Humidity 51%
Rainfall 0.00 in
Snow Depth Not available.
UV 0 out of 12
Pollen 9.50 out of 12
Air Quality Not available.
Flu Activity Not available.
METAR K4O4 310115Z AUTO 15008KT 10SM CLR 28/17 A2993 RMK AO2
Pressure 29.93 in
Visibility 10.0 miles
Clouds Clear
Heat Index 83 °F
Dew Point 63 °F
Humidity 51%
Rainfall 0.00 in
Snow Depth Not available.
UV 0 out of 12
Pollen 9.50 out of 12
Air Quality Not available.
Flu Activity Not available.
METAR K4O4 310115Z AUTO 15008KT 10SM CLR 28/17 A2993 RMK AO2
Nowcast | as of 7:43 PM CDT on August 30, 2015

Through 845 PM CDT...look for a large area of rain and embedded showers to continue over southeast Oklahoma and adjacent sections of southwest Arkansas generally to the north of a Valliant to Glover...and Hochatown Oklahoma and Grannis Arkansas line. Rainfall amounts will be less than one tenth of an inch.

×

10-Day Weather Forecast

×

Almanac

Astronomy

Aug. 30, 2015 Rise Set
Actual Time
Civil Twilight
Nautical Twilight
Astronomical Twilight
Moon
Length of Visible Light
Length of Day
Tomorrow will be .
, % of the Moon is Illuminated

Today's Extremes

State Highs State Lows

Community

WunderPhotos

Upload Photos

1,851,131 photos uploaded!

WunderBlogs® & News

Nearby

Air Quality

  Air Quality AQ Index Pollutant
Not available.

Snow Depth

Station Depth Elevation

Earthquake Activity

City Distance Mag. Time & Date
Minimum magnitude displayed is 2.5.

Coastal Water Temperatures

Place Temperature

Stations

Nearby Weather Stations

Station Location Temp. Windchill Dew Point Humidity Wind Precip. Elev Updated Type